<?xml version="1.0" encoding="UTF-8" standalone="no" ?>
<gpx xmlns="http://www.topografix.com/GPX/1/1" xmlns:xsi="http://www.w3.org/2001/XMLSchema-instance" xsi:schemaLocation="http://www.topografix.com/GPX/1/1 http://www.topografix.com/GPX/1/1/gpx.xsd" version="1.1" creator="VisuGPX - https://www.visugpx.com">
  <metadata>
    <name>LesSables_RocStJeanLaChaume_13-19km</name>
    <desc><![CDATA[gnerando idor:5641305_6533341]]></desc>
  </metadata>
  <trk>
    <name><![CDATA[LesSablesOlonne_BordCoteRocStJean_19.3km-6533341]]></name>
    <extensions>
      <line xmlns="http://www.topografix.com/GPX/gpx_style/0/2">
        <color>00FF00</color>
        <width>4</width>
      </line>
    </extensions>
    <trkseg>
      <trkpt lat="46.46676" lon="-1.73582">
        <ele>5</ele>
        <time>2023-11-01T10:59:02Z</time>
      </trkpt>
      <trkpt lat="46.46694" lon="-1.73584">
        <ele>6</ele>
        <time>2023-11-01T10:59:26Z</time>
      </trkpt>
      <trkpt lat="46.46743" lon="-1.73664">
        <ele>5</ele>
        <time>2023-11-01T11:01:04Z</time>
      </trkpt>
      <trkpt lat="46.46757" lon="-1.73681">
        <ele>4</ele>
        <time>2023-11-01T11:01:29Z</time>
      </trkpt>
      <trkpt lat="46.46776" lon="-1.73686">
        <ele>4</ele>
        <time>2023-11-01T11:01:55Z</time>
      </trkpt>
      <trkpt lat="46.46795" lon="-1.73685">
        <ele>4</ele>
        <time>2023-11-01T11:02:20Z</time>
      </trkpt>
      <trkpt lat="46.46814" lon="-1.73689">
        <ele>5</ele>
        <time>2023-11-01T11:02:46Z</time>
      </trkpt>
      <trkpt lat="46.4683" lon="-1.73704">
        <ele>4</ele>
        <time>2023-11-01T11:03:11Z</time>
      </trkpt>
      <trkpt lat="46.46841" lon="-1.73725">
        <ele>5</ele>
        <time>2023-11-01T11:03:35Z</time>
      </trkpt>
      <trkpt lat="46.46848" lon="-1.7375">
        <ele>5</ele>
        <time>2023-11-01T11:04:00Z</time>
      </trkpt>
      <trkpt lat="46.46847" lon="-1.73777">
        <ele>6</ele>
        <time>2023-11-01T11:04:25Z</time>
      </trkpt>
      <trkpt lat="46.46831" lon="-1.73854">
        <ele>6</ele>
        <time>2023-11-01T11:05:39Z</time>
      </trkpt>
      <trkpt lat="46.4683" lon="-1.73881">
        <ele>6</ele>
        <time>2023-11-01T11:06:04Z</time>
      </trkpt>
      <trkpt lat="46.46843" lon="-1.73931">
        <ele>7</ele>
        <time>2023-11-01T11:06:53Z</time>
      </trkpt>
      <trkpt lat="46.46847" lon="-1.73958">
        <ele>7</ele>
        <time>2023-11-01T11:07:18Z</time>
      </trkpt>
      <trkpt lat="46.46851" lon="-1.74038">
        <ele>5</ele>
        <time>2023-11-01T11:08:32Z</time>
      </trkpt>
      <trkpt lat="46.46856" lon="-1.74064">
        <ele>5</ele>
        <time>2023-11-01T11:08:57Z</time>
      </trkpt>
      <trkpt lat="46.46864" lon="-1.74088">
        <ele>5</ele>
        <time>2023-11-01T11:09:21Z</time>
      </trkpt>
      <trkpt lat="46.46874" lon="-1.74111">
        <ele>5</ele>
        <time>2023-11-01T11:09:46Z</time>
      </trkpt>
      <trkpt lat="46.46901" lon="-1.74149">
        <ele>5</ele>
        <time>2023-11-01T11:10:36Z</time>
      </trkpt>
      <trkpt lat="46.46917" lon="-1.74162">
        <ele>5</ele>
        <time>2023-11-01T11:11:01Z</time>
      </trkpt>
      <trkpt lat="46.46931" lon="-1.74179">
        <ele>5</ele>
        <time>2023-11-01T11:11:25Z</time>
      </trkpt>
      <trkpt lat="46.46964" lon="-1.74203">
        <ele>6</ele>
        <time>2023-11-01T11:12:15Z</time>
      </trkpt>
      <trkpt lat="46.46979" lon="-1.74221">
        <ele>6</ele>
        <time>2023-11-01T11:12:40Z</time>
      </trkpt>
      <trkpt lat="46.46988" lon="-1.74243">
        <ele>5</ele>
        <time>2023-11-01T11:13:04Z</time>
      </trkpt>
      <trkpt lat="46.47" lon="-1.74263">
        <ele>4</ele>
        <time>2023-11-01T11:13:28Z</time>
      </trkpt>
      <trkpt lat="46.47015" lon="-1.7428">
        <ele>5</ele>
        <time>2023-11-01T11:13:54Z</time>
      </trkpt>
      <trkpt lat="46.47027" lon="-1.74301">
        <ele>5</ele>
        <time>2023-11-01T11:14:19Z</time>
      </trkpt>
      <trkpt lat="46.47049" lon="-1.74345">
        <ele>5</ele>
        <time>2023-11-01T11:15:09Z</time>
      </trkpt>
      <trkpt lat="46.47057" lon="-1.74369">
        <ele>5</ele>
        <time>2023-11-01T11:15:33Z</time>
      </trkpt>
      <trkpt lat="46.47071" lon="-1.74387">
        <ele>4</ele>
        <time>2023-11-01T11:15:58Z</time>
      </trkpt>
      <trkpt lat="46.47089" lon="-1.74397">
        <ele>5</ele>
        <time>2023-11-01T11:16:24Z</time>
      </trkpt>
      <trkpt lat="46.47103" lon="-1.74415">
        <ele>5</ele>
        <time>2023-11-01T11:16:49Z</time>
      </trkpt>
      <trkpt lat="46.4711" lon="-1.7444">
        <ele>5</ele>
        <time>2023-11-01T11:17:14Z</time>
      </trkpt>
      <trkpt lat="46.47141" lon="-1.74509">
        <ele>5</ele>
        <time>2023-11-01T11:18:29Z</time>
      </trkpt>
      <trkpt lat="46.47145" lon="-1.74535">
        <ele>4</ele>
        <time>2023-11-01T11:18:54Z</time>
      </trkpt>
      <trkpt lat="46.4717" lon="-1.74574">
        <ele>5</ele>
        <time>2023-11-01T11:19:43Z</time>
      </trkpt>
      <trkpt lat="46.47179" lon="-1.74599">
        <ele>5</ele>
        <time>2023-11-01T11:20:09Z</time>
      </trkpt>
      <trkpt lat="46.47194" lon="-1.74612">
        <ele>6</ele>
        <time>2023-11-01T11:20:32Z</time>
      </trkpt>
      <trkpt lat="46.47208" lon="-1.74632">
        <ele>7</ele>
        <time>2023-11-01T11:20:58Z</time>
      </trkpt>
      <trkpt lat="46.47216" lon="-1.74657">
        <ele>7</ele>
        <time>2023-11-01T11:21:24Z</time>
      </trkpt>
      <trkpt lat="46.47216" lon="-1.74683">
        <ele>5</ele>
        <time>2023-11-01T11:21:48Z</time>
      </trkpt>
      <trkpt lat="46.47233" lon="-1.74693">
        <ele>6</ele>
        <time>2023-11-01T11:22:12Z</time>
      </trkpt>
      <trkpt lat="46.47248" lon="-1.74708">
        <ele>6</ele>
        <time>2023-11-01T11:22:36Z</time>
      </trkpt>
      <trkpt lat="46.47276" lon="-1.74745">
        <ele>6</ele>
        <time>2023-11-01T11:23:27Z</time>
      </trkpt>
      <trkpt lat="46.47294" lon="-1.74751">
        <ele>7</ele>
        <time>2023-11-01T11:23:52Z</time>
      </trkpt>
      <trkpt lat="46.47311" lon="-1.74765">
        <ele>8</ele>
        <time>2023-11-01T11:24:18Z</time>
      </trkpt>
      <trkpt lat="46.4732" lon="-1.74789">
        <ele>7</ele>
        <time>2023-11-01T11:24:43Z</time>
      </trkpt>
      <trkpt lat="46.47334" lon="-1.74807">
        <ele>7</ele>
        <time>2023-11-01T11:25:08Z</time>
      </trkpt>
      <trkpt lat="46.47341" lon="-1.74832">
        <ele>7</ele>
        <time>2023-11-01T11:25:32Z</time>
      </trkpt>
      <trkpt lat="46.47331" lon="-1.74912">
        <ele>4</ele>
        <time>2023-11-01T11:26:47Z</time>
      </trkpt>
      <trkpt lat="46.47339" lon="-1.74937">
        <ele>4</ele>
        <time>2023-11-01T11:27:13Z</time>
      </trkpt>
      <trkpt lat="46.47342" lon="-1.74963">
        <ele>4</ele>
        <time>2023-11-01T11:27:37Z</time>
      </trkpt>
      <trkpt lat="46.47349" lon="-1.74988">
        <ele>4</ele>
        <time>2023-11-01T11:28:02Z</time>
      </trkpt>
      <trkpt lat="46.47374" lon="-1.75028">
        <ele>6</ele>
        <time>2023-11-01T11:28:51Z</time>
      </trkpt>
      <trkpt lat="46.47377" lon="-1.75081">
        <ele>5</ele>
        <time>2023-11-01T11:29:40Z</time>
      </trkpt>
      <trkpt lat="46.47387" lon="-1.75104">
        <ele>5</ele>
        <time>2023-11-01T11:30:05Z</time>
      </trkpt>
      <trkpt lat="46.47422" lon="-1.75166">
        <ele>7</ele>
        <time>2023-11-01T11:31:19Z</time>
      </trkpt>
      <trkpt lat="46.47431" lon="-1.75189">
        <ele>7</ele>
        <time>2023-11-01T11:31:43Z</time>
      </trkpt>
      <trkpt lat="46.47433" lon="-1.75215">
        <ele>6</ele>
        <time>2023-11-01T11:32:07Z</time>
      </trkpt>
      <trkpt lat="46.47445" lon="-1.75265">
        <ele>5</ele>
        <time>2023-11-01T11:32:56Z</time>
      </trkpt>
      <trkpt lat="46.47451" lon="-1.75319">
        <ele>5</ele>
        <time>2023-11-01T11:33:46Z</time>
      </trkpt>
      <trkpt lat="46.4747" lon="-1.75365">
        <ele>6</ele>
        <time>2023-11-01T11:34:35Z</time>
      </trkpt>
      <trkpt lat="46.47475" lon="-1.75391">
        <ele>6</ele>
        <time>2023-11-01T11:35:00Z</time>
      </trkpt>
      <trkpt lat="46.47478" lon="-1.75445">
        <ele>6</ele>
        <time>2023-11-01T11:35:50Z</time>
      </trkpt>
      <trkpt lat="46.47489" lon="-1.75496">
        <ele>7</ele>
        <time>2023-11-01T11:36:39Z</time>
      </trkpt>
      <trkpt lat="46.47516" lon="-1.75596">
        <ele>6</ele>
        <time>2023-11-01T11:38:18Z</time>
      </trkpt>
      <trkpt lat="46.47553" lon="-1.75656">
        <ele>7</ele>
        <time>2023-11-01T11:39:32Z</time>
      </trkpt>
      <trkpt lat="46.4761" lon="-1.75728">
        <ele>7</ele>
        <time>2023-11-01T11:41:13Z</time>
      </trkpt>
      <trkpt lat="46.47622" lon="-1.75748">
        <ele>7</ele>
        <time>2023-11-01T11:41:37Z</time>
      </trkpt>
      <trkpt lat="46.47669" lon="-1.75792">
        <ele>7</ele>
        <time>2023-11-01T11:42:52Z</time>
      </trkpt>
      <trkpt lat="46.47696" lon="-1.75827">
        <ele>7</ele>
        <time>2023-11-01T11:43:40Z</time>
      </trkpt>
      <trkpt lat="46.47746" lon="-1.75906">
        <ele>7</ele>
        <time>2023-11-01T11:45:19Z</time>
      </trkpt>
      <trkpt lat="46.47758" lon="-1.75929">
        <ele>7</ele>
        <time>2023-11-01T11:45:45Z</time>
      </trkpt>
      <trkpt lat="46.47766" lon="-1.75954">
        <ele>6</ele>
        <time>2023-11-01T11:46:10Z</time>
      </trkpt>
      <trkpt lat="46.47791" lon="-1.75991">
        <ele>5</ele>
        <time>2023-11-01T11:46:58Z</time>
      </trkpt>
      <trkpt lat="46.47821" lon="-1.76022">
        <ele>5</ele>
        <time>2023-11-01T11:47:47Z</time>
      </trkpt>
      <trkpt lat="46.47839" lon="-1.7603">
        <ele>6</ele>
        <time>2023-11-01T11:48:12Z</time>
      </trkpt>
      <trkpt lat="46.47857" lon="-1.76025">
        <ele>7</ele>
        <time>2023-11-01T11:48:37Z</time>
      </trkpt>
      <trkpt lat="46.47874" lon="-1.76015">
        <ele>8</ele>
        <time>2023-11-01T11:49:01Z</time>
      </trkpt>
      <trkpt lat="46.47929" lon="-1.7603">
        <ele>8</ele>
        <time>2023-11-01T11:50:16Z</time>
      </trkpt>
      <trkpt lat="46.47965" lon="-1.76037">
        <ele>7</ele>
        <time>2023-11-01T11:51:04Z</time>
      </trkpt>
      <trkpt lat="46.48002" lon="-1.76036">
        <ele>6</ele>
        <time>2023-11-01T11:51:54Z</time>
      </trkpt>
      <trkpt lat="46.48038" lon="-1.7604">
        <ele>7</ele>
        <time>2023-11-01T11:52:42Z</time>
      </trkpt>
      <trkpt lat="46.48056" lon="-1.76049">
        <ele>7</ele>
        <time>2023-11-01T11:53:07Z</time>
      </trkpt>
      <trkpt lat="46.48065" lon="-1.76073">
        <ele>6</ele>
        <time>2023-11-01T11:53:32Z</time>
      </trkpt>
      <trkpt lat="46.4807" lon="-1.76098">
        <ele>6</ele>
        <time>2023-11-01T11:53:56Z</time>
      </trkpt>
      <trkpt lat="46.48084" lon="-1.76116">
        <ele>5</ele>
        <time>2023-11-01T11:54:21Z</time>
      </trkpt>
      <trkpt lat="46.48116" lon="-1.76143">
        <ele>5</ele>
        <time>2023-11-01T11:55:11Z</time>
      </trkpt>
      <trkpt lat="46.48146" lon="-1.76175">
        <ele>4</ele>
        <time>2023-11-01T11:56:00Z</time>
      </trkpt>
      <trkpt lat="46.48189" lon="-1.76228">
        <ele>3</ele>
        <time>2023-11-01T11:57:16Z</time>
      </trkpt>
      <trkpt lat="46.48248" lon="-1.76294">
        <ele>6.6</ele>
        <time>2023-11-01T11:58:55Z</time>
      </trkpt>
      <trkpt lat="46.48318" lon="-1.76382">
        <ele>1</ele>
        <time>2023-11-01T12:00:59Z</time>
      </trkpt>
      <trkpt lat="46.48419" lon="-1.76499">
        <ele>4</ele>
        <time>2023-11-01T12:03:51Z</time>
      </trkpt>
      <trkpt lat="46.48434" lon="-1.76515">
        <ele>5</ele>
        <time>2023-11-01T12:04:16Z</time>
      </trkpt>
      <trkpt lat="46.48451" lon="-1.76522">
        <ele>6</ele>
        <time>2023-11-01T12:04:39Z</time>
      </trkpt>
      <trkpt lat="46.48461" lon="-1.76501">
        <ele>7</ele>
        <time>2023-11-01T12:05:03Z</time>
      </trkpt>
      <trkpt lat="46.48467" lon="-1.76447">
        <ele>8</ele>
        <time>2023-11-01T12:05:53Z</time>
      </trkpt>
      <trkpt lat="46.48472" lon="-1.76422">
        <ele>9</ele>
        <time>2023-11-01T12:06:17Z</time>
      </trkpt>
      <trkpt lat="46.48505" lon="-1.76297">
        <ele>14</ele>
        <time>2023-11-01T12:08:20Z</time>
      </trkpt>
      <trkpt lat="46.48522" lon="-1.76287">
        <ele>15</ele>
        <time>2023-11-01T12:08:44Z</time>
      </trkpt>
      <trkpt lat="46.4854" lon="-1.76294">
        <ele>15</ele>
        <time>2023-11-01T12:09:09Z</time>
      </trkpt>
      <trkpt lat="46.48583" lon="-1.76266">
        <ele>17</ele>
        <time>2023-11-01T12:10:12Z</time>
      </trkpt>
      <trkpt lat="46.4864" lon="-1.76237">
        <ele>18</ele>
        <time>2023-11-01T12:11:33Z</time>
      </trkpt>
      <trkpt lat="46.48657" lon="-1.76222">
        <ele>18</ele>
        <time>2023-11-01T12:11:59Z</time>
      </trkpt>
      <trkpt lat="46.48667" lon="-1.762">
        <ele>18</ele>
        <time>2023-11-01T12:12:24Z</time>
      </trkpt>
      <trkpt lat="46.48699" lon="-1.76227">
        <ele>18</ele>
        <time>2023-11-01T12:13:13Z</time>
      </trkpt>
      <trkpt lat="46.48729" lon="-1.76328">
        <ele>18</ele>
        <time>2023-11-01T12:14:54Z</time>
      </trkpt>
      <trkpt lat="46.48741" lon="-1.76377">
        <ele>17</ele>
        <time>2023-11-01T12:15:42Z</time>
      </trkpt>
      <trkpt lat="46.48751" lon="-1.764">
        <ele>16</ele>
        <time>2023-11-01T12:16:07Z</time>
      </trkpt>
      <trkpt lat="46.48758" lon="-1.76426">
        <ele>16</ele>
        <time>2023-11-01T12:16:32Z</time>
      </trkpt>
      <trkpt lat="46.48761" lon="-1.76451">
        <ele>16</ele>
        <time>2023-11-01T12:16:56Z</time>
      </trkpt>
      <trkpt lat="46.48773" lon="-1.76475">
        <ele>16</ele>
        <time>2023-11-01T12:17:23Z</time>
      </trkpt>
      <trkpt lat="46.48791" lon="-1.76484">
        <ele>15</ele>
        <time>2023-11-01T12:17:48Z</time>
      </trkpt>
      <trkpt lat="46.48807" lon="-1.76496">
        <ele>15</ele>
        <time>2023-11-01T12:18:12Z</time>
      </trkpt>
      <trkpt lat="46.48821" lon="-1.76515">
        <ele>14</ele>
        <time>2023-11-01T12:18:38Z</time>
      </trkpt>
      <trkpt lat="46.48822" lon="-1.76542">
        <ele>14</ele>
        <time>2023-11-01T12:19:03Z</time>
      </trkpt>
      <trkpt lat="46.48909" lon="-1.76641">
        <ele>15</ele>
        <time>2023-11-01T12:21:30Z</time>
      </trkpt>
      <trkpt lat="46.48922" lon="-1.76661">
        <ele>15</ele>
        <time>2023-11-01T12:21:56Z</time>
      </trkpt>
      <trkpt lat="46.48932" lon="-1.76684">
        <ele>15</ele>
        <time>2023-11-01T12:22:21Z</time>
      </trkpt>
      <trkpt lat="46.48933" lon="-1.76737">
        <ele>14</ele>
        <time>2023-11-01T12:23:09Z</time>
      </trkpt>
      <trkpt lat="46.48931" lon="-1.76765">
        <ele>13</ele>
        <time>2023-11-01T12:23:35Z</time>
      </trkpt>
      <trkpt lat="46.48922" lon="-1.76818">
        <ele>12</ele>
        <time>2023-11-01T12:24:25Z</time>
      </trkpt>
      <trkpt lat="46.48922" lon="-1.76846">
        <ele>12</ele>
        <time>2023-11-01T12:24:51Z</time>
      </trkpt>
      <trkpt lat="46.48912" lon="-1.76868">
        <ele>11</ele>
        <time>2023-11-01T12:25:15Z</time>
      </trkpt>
      <trkpt lat="46.48906" lon="-1.76894">
        <ele>10</ele>
        <time>2023-11-01T12:25:41Z</time>
      </trkpt>
      <trkpt lat="46.4889" lon="-1.76908">
        <ele>9</ele>
        <time>2023-11-01T12:26:05Z</time>
      </trkpt>
      <trkpt lat="46.48882" lon="-1.76932">
        <ele>8</ele>
        <time>2023-11-01T12:26:30Z</time>
      </trkpt>
      <trkpt lat="46.48869" lon="-1.76951">
        <ele>7</ele>
        <time>2023-11-01T12:26:55Z</time>
      </trkpt>
      <trkpt lat="46.48872" lon="-1.76977">
        <ele>5</ele>
        <time>2023-11-01T12:27:19Z</time>
      </trkpt>
      <trkpt lat="46.48908" lon="-1.76991">
        <ele>7</ele>
        <time>2023-11-01T12:28:09Z</time>
      </trkpt>
      <trkpt lat="46.48921" lon="-1.77011">
        <ele>7</ele>
        <time>2023-11-01T12:28:34Z</time>
      </trkpt>
      <trkpt lat="46.48949" lon="-1.77082">
        <ele>5</ele>
        <time>2023-11-01T12:29:49Z</time>
      </trkpt>
      <trkpt lat="46.49002" lon="-1.77192">
        <ele>6</ele>
        <time>2023-11-01T12:31:52Z</time>
      </trkpt>
      <trkpt lat="46.49087" lon="-1.77401">
        <ele>6</ele>
        <time>2023-11-01T12:35:35Z</time>
      </trkpt>
      <trkpt lat="46.49128" lon="-1.77491">
        <ele>6</ele>
        <time>2023-11-01T12:37:14Z</time>
      </trkpt>
      <trkpt lat="46.49151" lon="-1.77531">
        <ele>7</ele>
        <time>2023-11-01T12:38:02Z</time>
      </trkpt>
      <trkpt lat="46.49167" lon="-1.77546">
        <ele>8</ele>
        <time>2023-11-01T12:38:28Z</time>
      </trkpt>
      <trkpt lat="46.49205" lon="-1.77606">
        <ele>7</ele>
        <time>2023-11-01T12:39:43Z</time>
      </trkpt>
      <trkpt lat="46.49219" lon="-1.77623">
        <ele>7</ele>
        <time>2023-11-01T12:40:07Z</time>
      </trkpt>
      <trkpt lat="46.49226" lon="-1.77648">
        <ele>6</ele>
        <time>2023-11-01T12:40:32Z</time>
      </trkpt>
      <trkpt lat="46.49228" lon="-1.77674">
        <ele>5</ele>
        <time>2023-11-01T12:40:56Z</time>
      </trkpt>
      <trkpt lat="46.49256" lon="-1.77744">
        <ele>4</ele>
        <time>2023-11-01T12:42:10Z</time>
      </trkpt>
      <trkpt lat="46.49283" lon="-1.77846">
        <ele>5</ele>
        <time>2023-11-01T12:43:51Z</time>
      </trkpt>
      <trkpt lat="46.49301" lon="-1.77894">
        <ele>5</ele>
        <time>2023-11-01T12:44:41Z</time>
      </trkpt>
      <trkpt lat="46.49312" lon="-1.77915">
        <ele>5</ele>
        <time>2023-11-01T12:45:05Z</time>
      </trkpt>
      <trkpt lat="46.4932" lon="-1.7794">
        <ele>4</ele>
        <time>2023-11-01T12:45:30Z</time>
      </trkpt>
      <trkpt lat="46.49335" lon="-1.77957">
        <ele>5</ele>
        <time>2023-11-01T12:45:56Z</time>
      </trkpt>
      <trkpt lat="46.49344" lon="-1.7801">
        <ele>4</ele>
        <time>2023-11-01T12:46:46Z</time>
      </trkpt>
      <trkpt lat="46.49391" lon="-1.78188">
        <ele>5</ele>
        <time>2023-11-01T12:49:41Z</time>
      </trkpt>
      <trkpt lat="46.49394" lon="-1.78214">
        <ele>5</ele>
        <time>2023-11-01T12:50:05Z</time>
      </trkpt>
      <trkpt lat="46.49409" lon="-1.78291">
        <ele>4</ele>
        <time>2023-11-01T12:51:19Z</time>
      </trkpt>
      <trkpt lat="46.49423" lon="-1.78342">
        <ele>4</ele>
        <time>2023-11-01T12:52:09Z</time>
      </trkpt>
      <trkpt lat="46.4944" lon="-1.78555">
        <ele>7</ele>
        <time>2023-11-01T12:55:26Z</time>
      </trkpt>
      <trkpt lat="46.4944" lon="-1.78582">
        <ele>7</ele>
        <time>2023-11-01T12:55:51Z</time>
      </trkpt>
      <trkpt lat="46.49449" lon="-1.78634">
        <ele>8</ele>
        <time>2023-11-01T12:56:40Z</time>
      </trkpt>
      <trkpt lat="46.4945" lon="-1.7866">
        <ele>8</ele>
        <time>2023-11-01T12:57:04Z</time>
      </trkpt>
      <trkpt lat="46.49463" lon="-1.78678">
        <ele>9</ele>
        <time>2023-11-01T12:57:28Z</time>
      </trkpt>
      <trkpt lat="46.49449" lon="-1.78783">
        <ele>6</ele>
        <time>2023-11-01T12:59:06Z</time>
      </trkpt>
      <trkpt lat="46.49442" lon="-1.78809">
        <ele>6</ele>
        <time>2023-11-01T12:59:32Z</time>
      </trkpt>
      <trkpt lat="46.49429" lon="-1.78888">
        <ele>7</ele>
        <time>2023-11-01T13:00:47Z</time>
      </trkpt>
      <trkpt lat="46.49427" lon="-1.78915">
        <ele>7</ele>
        <time>2023-11-01T13:01:12Z</time>
      </trkpt>
      <trkpt lat="46.49428" lon="-1.78942">
        <ele>8</ele>
        <time>2023-11-01T13:01:37Z</time>
      </trkpt>
      <trkpt lat="46.49441" lon="-1.78959">
        <ele>9</ele>
        <time>2023-11-01T13:02:00Z</time>
      </trkpt>
      <trkpt lat="46.49452" lon="-1.78981">
        <ele>9</ele>
        <time>2023-11-01T13:02:25Z</time>
      </trkpt>
      <trkpt lat="46.49454" lon="-1.79008">
        <ele>10</ele>
        <time>2023-11-01T13:02:50Z</time>
      </trkpt>
      <trkpt lat="46.49441" lon="-1.79057">
        <ele>9</ele>
        <time>2023-11-01T13:03:38Z</time>
      </trkpt>
      <trkpt lat="46.49428" lon="-1.79077">
        <ele>8</ele>
        <time>2023-11-01T13:04:03Z</time>
      </trkpt>
      <trkpt lat="46.49411" lon="-1.79125">
        <ele>9</ele>
        <time>2023-11-01T13:04:53Z</time>
      </trkpt>
      <trkpt lat="46.4941" lon="-1.79152">
        <ele>9</ele>
        <time>2023-11-01T13:05:18Z</time>
      </trkpt>
      <trkpt lat="46.49395" lon="-1.792">
        <ele>9</ele>
        <time>2023-11-01T13:06:06Z</time>
      </trkpt>
      <trkpt lat="46.49384" lon="-1.79223">
        <ele>9</ele>
        <time>2023-11-01T13:06:32Z</time>
      </trkpt>
      <trkpt lat="46.49356" lon="-1.79257">
        <ele>9</ele>
        <time>2023-11-01T13:07:21Z</time>
      </trkpt>
      <trkpt lat="46.49341" lon="-1.79271">
        <ele>8</ele>
        <time>2023-11-01T13:07:44Z</time>
      </trkpt>
      <trkpt lat="46.49344" lon="-1.79297">
        <ele>7</ele>
        <time>2023-11-01T13:08:09Z</time>
      </trkpt>
      <trkpt lat="46.49368" lon="-1.79339">
        <ele>6</ele>
        <time>2023-11-01T13:08:59Z</time>
      </trkpt>
      <trkpt lat="46.49383" lon="-1.79356">
        <ele>6</ele>
        <time>2023-11-01T13:09:24Z</time>
      </trkpt>
      <trkpt lat="46.49386" lon="-1.79382">
        <ele>6</ele>
        <time>2023-11-01T13:09:48Z</time>
      </trkpt>
      <trkpt lat="46.49405" lon="-1.79384">
        <ele>6</ele>
        <time>2023-11-01T13:10:14Z</time>
      </trkpt>
      <trkpt lat="46.49428" lon="-1.79424">
        <ele>5</ele>
        <time>2023-11-01T13:11:02Z</time>
      </trkpt>
      <trkpt lat="46.49443" lon="-1.79438">
        <ele>6</ele>
        <time>2023-11-01T13:11:25Z</time>
      </trkpt>
      <trkpt lat="46.49497" lon="-1.79463">
        <ele>6</ele>
        <time>2023-11-01T13:12:41Z</time>
      </trkpt>
      <trkpt lat="46.4953" lon="-1.79484">
        <ele>5</ele>
        <time>2023-11-01T13:13:29Z</time>
      </trkpt>
      <trkpt lat="46.49565" lon="-1.79496">
        <ele>4</ele>
        <time>2023-11-01T13:14:17Z</time>
      </trkpt>
      <trkpt lat="46.49584" lon="-1.79498">
        <ele>3</ele>
        <time>2023-11-01T13:14:43Z</time>
      </trkpt>
      <trkpt lat="46.49602" lon="-1.79493">
        <ele>2</ele>
        <time>2023-11-01T13:15:07Z</time>
      </trkpt>
      <trkpt lat="46.49617" lon="-1.79478">
        <ele>2</ele>
        <time>2023-11-01T13:15:31Z</time>
      </trkpt>
      <trkpt lat="46.49651" lon="-1.79516">
        <ele>-1</ele>
        <time>2023-11-01T13:16:29Z</time>
      </trkpt>
      <trkpt lat="46.49662" lon="-1.79537">
        <ele>-1</ele>
        <time>2023-11-01T13:16:53Z</time>
      </trkpt>
      <trkpt lat="46.49696" lon="-1.79563">
        <ele>1</ele>
        <time>2023-11-01T13:17:44Z</time>
      </trkpt>
      <trkpt lat="46.49709" lon="-1.79581">
        <ele>1</ele>
        <time>2023-11-01T13:18:08Z</time>
      </trkpt>
      <trkpt lat="46.49711" lon="-1.79608">
        <ele>3</ele>
        <time>2023-11-01T13:18:33Z</time>
      </trkpt>
      <trkpt lat="46.497" lon="-1.79628">
        <ele>4</ele>
        <time>2023-11-01T13:18:57Z</time>
      </trkpt>
      <trkpt lat="46.49682" lon="-1.79633">
        <ele>4</ele>
        <time>2023-11-01T13:19:21Z</time>
      </trkpt>
      <trkpt lat="46.49664" lon="-1.79633">
        <ele>4</ele>
        <time>2023-11-01T13:19:45Z</time>
      </trkpt>
      <trkpt lat="46.49646" lon="-1.79627">
        <ele>4</ele>
        <time>2023-11-01T13:20:10Z</time>
      </trkpt>
      <trkpt lat="46.49609" lon="-1.79621">
        <ele>4</ele>
        <time>2023-11-01T13:20:59Z</time>
      </trkpt>
      <trkpt lat="46.49501" lon="-1.79594">
        <ele>4</ele>
        <time>2023-11-01T13:23:26Z</time>
      </trkpt>
      <trkpt lat="46.49466" lon="-1.79579">
        <ele>5</ele>
        <time>2023-11-01T13:24:14Z</time>
      </trkpt>
      <trkpt lat="46.49344" lon="-1.79519">
        <ele>10</ele>
        <time>2023-11-01T13:27:06Z</time>
      </trkpt>
      <trkpt lat="46.49309" lon="-1.79501">
        <ele>9</ele>
        <time>2023-11-01T13:27:56Z</time>
      </trkpt>
      <trkpt lat="46.49292" lon="-1.79488">
        <ele>7</ele>
        <time>2023-11-01T13:28:21Z</time>
      </trkpt>
      <trkpt lat="46.49273" lon="-1.79482">
        <ele>6</ele>
        <time>2023-11-01T13:28:47Z</time>
      </trkpt>
      <trkpt lat="46.49254" lon="-1.79482">
        <ele>5</ele>
        <time>2023-11-01T13:29:13Z</time>
      </trkpt>
      <trkpt lat="46.49236" lon="-1.79479">
        <ele>5</ele>
        <time>2023-11-01T13:29:37Z</time>
      </trkpt>
      <trkpt lat="46.49222" lon="-1.79462">
        <ele>4</ele>
        <time>2023-11-01T13:30:01Z</time>
      </trkpt>
      <trkpt lat="46.49172" lon="-1.79426">
        <ele>2</ele>
        <time>2023-11-01T13:31:16Z</time>
      </trkpt>
      <trkpt lat="46.49155" lon="-1.79418">
        <ele>2</ele>
        <time>2023-11-01T13:31:39Z</time>
      </trkpt>
      <trkpt lat="46.49139" lon="-1.79404">
        <ele>2</ele>
        <time>2023-11-01T13:32:04Z</time>
      </trkpt>
      <trkpt lat="46.49071" lon="-1.79363">
        <ele>2</ele>
        <time>2023-11-01T13:33:43Z</time>
      </trkpt>
      <trkpt lat="46.49062" lon="-1.79415">
        <ele>4</ele>
        <time>2023-11-01T13:34:32Z</time>
      </trkpt>
      <trkpt lat="46.49043" lon="-1.79418">
        <ele>4</ele>
        <time>2023-11-01T13:34:57Z</time>
      </trkpt>
      <trkpt lat="46.49034" lon="-1.79441">
        <ele>6</ele>
        <time>2023-11-01T13:35:22Z</time>
      </trkpt>
      <trkpt lat="46.49016" lon="-1.79444">
        <ele>5</ele>
        <time>2023-11-01T13:35:46Z</time>
      </trkpt>
      <trkpt lat="46.48997" lon="-1.79439">
        <ele>4</ele>
        <time>2023-11-01T13:36:12Z</time>
      </trkpt>
      <trkpt lat="46.48978" lon="-1.79442">
        <ele>4</ele>
        <time>2023-11-01T13:36:37Z</time>
      </trkpt>
      <trkpt lat="46.48976" lon="-1.79469">
        <ele>5</ele>
        <time>2023-11-01T13:37:02Z</time>
      </trkpt>
      <trkpt lat="46.48966" lon="-1.79491">
        <ele>6</ele>
        <time>2023-11-01T13:37:26Z</time>
      </trkpt>
      <trkpt lat="46.48963" lon="-1.79517">
        <ele>6</ele>
        <time>2023-11-01T13:37:51Z</time>
      </trkpt>
      <trkpt lat="46.48976" lon="-1.79536">
        <ele>8</ele>
        <time>2023-11-01T13:38:15Z</time>
      </trkpt>
      <trkpt lat="46.48985" lon="-1.79559">
        <ele>10</ele>
        <time>2023-11-01T13:38:39Z</time>
      </trkpt>
      <trkpt lat="46.48998" lon="-1.79578">
        <ele>12</ele>
        <time>2023-11-01T13:39:04Z</time>
      </trkpt>
      <trkpt lat="46.48984" lon="-1.79594">
        <ele>10</ele>
        <time>2023-11-01T13:39:28Z</time>
      </trkpt>
      <trkpt lat="46.48967" lon="-1.79606">
        <ele>9</ele>
        <time>2023-11-01T13:39:53Z</time>
      </trkpt>
      <trkpt lat="46.48953" lon="-1.79623">
        <ele>8</ele>
        <time>2023-11-01T13:40:17Z</time>
      </trkpt>
      <trkpt lat="46.48948" lon="-1.79649">
        <ele>8</ele>
        <time>2023-11-01T13:40:42Z</time>
      </trkpt>
      <trkpt lat="46.48937" lon="-1.79672">
        <ele>7</ele>
        <time>2023-11-01T13:41:08Z</time>
      </trkpt>
      <trkpt lat="46.48934" lon="-1.79698">
        <ele>7</ele>
        <time>2023-11-01T13:41:32Z</time>
      </trkpt>
      <trkpt lat="46.48943" lon="-1.79749">
        <ele>7</ele>
        <time>2023-11-01T13:42:21Z</time>
      </trkpt>
      <trkpt lat="46.4895" lon="-1.79775">
        <ele>7</ele>
        <time>2023-11-01T13:42:46Z</time>
      </trkpt>
      <trkpt lat="46.4895" lon="-1.79802">
        <ele>7</ele>
        <time>2023-11-01T13:43:11Z</time>
      </trkpt>
      <trkpt lat="46.48938" lon="-1.79853">
        <ele>6</ele>
        <time>2023-11-01T13:44:01Z</time>
      </trkpt>
      <trkpt lat="46.489" lon="-1.79913">
        <ele>4</ele>
        <time>2023-11-01T13:45:15Z</time>
      </trkpt>
      <trkpt lat="46.48906" lon="-1.79938">
        <ele>5</ele>
        <time>2023-11-01T13:45:40Z</time>
      </trkpt>
      <trkpt lat="46.48904" lon="-1.79965">
        <ele>6</ele>
        <time>2023-11-01T13:46:05Z</time>
      </trkpt>
      <trkpt lat="46.48918" lon="-1.80099">
        <ele>8</ele>
        <time>2023-11-01T13:48:09Z</time>
      </trkpt>
      <trkpt lat="46.48937" lon="-1.80144">
        <ele>9</ele>
        <time>2023-11-01T13:48:58Z</time>
      </trkpt>
      <trkpt lat="46.48938" lon="-1.80171">
        <ele>9</ele>
        <time>2023-11-01T13:49:23Z</time>
      </trkpt>
      <trkpt lat="46.48924" lon="-1.80249">
        <ele>7</ele>
        <time>2023-11-01T13:50:37Z</time>
      </trkpt>
      <trkpt lat="46.48926" lon="-1.80275">
        <ele>6</ele>
        <time>2023-11-01T13:51:01Z</time>
      </trkpt>
      <trkpt lat="46.48935" lon="-1.80328">
        <ele>4</ele>
        <time>2023-11-01T13:51:51Z</time>
      </trkpt>
      <trkpt lat="46.48942" lon="-1.80353">
        <ele>4</ele>
        <time>2023-11-01T13:52:16Z</time>
      </trkpt>
      <trkpt lat="46.48944" lon="-1.80381">
        <ele>4</ele>
        <time>2023-11-01T13:52:41Z</time>
      </trkpt>
      <trkpt lat="46.48951" lon="-1.80406">
        <ele>4</ele>
        <time>2023-11-01T13:53:06Z</time>
      </trkpt>
      <trkpt lat="46.48965" lon="-1.80424">
        <ele>5</ele>
        <time>2023-11-01T13:53:31Z</time>
      </trkpt>
      <trkpt lat="46.4898" lon="-1.80437">
        <ele>5</ele>
        <time>2023-11-01T13:53:55Z</time>
      </trkpt>
      <trkpt lat="46.4899" lon="-1.8046">
        <ele>5</ele>
        <time>2023-11-01T13:54:20Z</time>
      </trkpt>
      <trkpt lat="46.49007" lon="-1.80472">
        <ele>6</ele>
        <time>2023-11-01T13:54:45Z</time>
      </trkpt>
      <trkpt lat="46.49025" lon="-1.8048">
        <ele>7</ele>
        <time>2023-11-01T13:55:10Z</time>
      </trkpt>
      <trkpt lat="46.49041" lon="-1.80492">
        <ele>7</ele>
        <time>2023-11-01T13:55:34Z</time>
      </trkpt>
      <trkpt lat="46.49052" lon="-1.80512">
        <ele>7</ele>
        <time>2023-11-01T13:55:57Z</time>
      </trkpt>
      <trkpt lat="46.4907" lon="-1.80523">
        <ele>7</ele>
        <time>2023-11-01T13:56:23Z</time>
      </trkpt>
      <trkpt lat="46.49085" lon="-1.80538">
        <ele>6</ele>
        <time>2023-11-01T13:56:48Z</time>
      </trkpt>
      <trkpt lat="46.49104" lon="-1.80536">
        <ele>7</ele>
        <time>2023-11-01T13:57:13Z</time>
      </trkpt>
      <trkpt lat="46.49119" lon="-1.80521">
        <ele>9</ele>
        <time>2023-11-01T13:57:38Z</time>
      </trkpt>
      <trkpt lat="46.49125" lon="-1.80496">
        <ele>10</ele>
        <time>2023-11-01T13:58:02Z</time>
      </trkpt>
      <trkpt lat="46.49117" lon="-1.8039">
        <ele>12</ele>
        <time>2023-11-01T13:59:40Z</time>
      </trkpt>
      <trkpt lat="46.49121" lon="-1.80336">
        <ele>12</ele>
        <time>2023-11-01T14:00:30Z</time>
      </trkpt>
      <trkpt lat="46.49127" lon="-1.8031">
        <ele>13</ele>
        <time>2023-11-01T14:00:55Z</time>
      </trkpt>
      <trkpt lat="46.49127" lon="-1.80284">
        <ele>13</ele>
        <time>2023-11-01T14:01:19Z</time>
      </trkpt>
      <trkpt lat="46.49141" lon="-1.80266">
        <ele>13</ele>
        <time>2023-11-01T14:01:44Z</time>
      </trkpt>
      <trkpt lat="46.49147" lon="-1.8024">
        <ele>13</ele>
        <time>2023-11-01T14:02:09Z</time>
      </trkpt>
      <trkpt lat="46.49157" lon="-1.80217">
        <ele>13</ele>
        <time>2023-11-01T14:02:34Z</time>
      </trkpt>
      <trkpt lat="46.49182" lon="-1.80144">
        <ele>14</ele>
        <time>2023-11-01T14:03:49Z</time>
      </trkpt>
      <trkpt lat="46.49219" lon="-1.80021">
        <ele>14</ele>
        <time>2023-11-01T14:05:52Z</time>
      </trkpt>
      <trkpt lat="46.49255" lon="-1.79926">
        <ele>13</ele>
        <time>2023-11-01T14:07:32Z</time>
      </trkpt>
      <trkpt lat="46.49291" lon="-1.79909">
        <ele>13</ele>
        <time>2023-11-01T14:08:22Z</time>
      </trkpt>
      <trkpt lat="46.49318" lon="-1.79874">
        <ele>12</ele>
        <time>2023-11-01T14:09:11Z</time>
      </trkpt>
      <trkpt lat="46.49365" lon="-1.79834">
        <ele>12</ele>
        <time>2023-11-01T14:10:23Z</time>
      </trkpt>
      <trkpt lat="46.49399" lon="-1.79814">
        <ele>12</ele>
        <time>2023-11-01T14:11:12Z</time>
      </trkpt>
      <trkpt lat="46.4943" lon="-1.79783">
        <ele>12</ele>
        <time>2023-11-01T14:12:02Z</time>
      </trkpt>
      <trkpt lat="46.49444" lon="-1.79734">
        <ele>11</ele>
        <time>2023-11-01T14:12:51Z</time>
      </trkpt>
      <trkpt lat="46.49459" lon="-1.7972">
        <ele>10</ele>
        <time>2023-11-01T14:13:15Z</time>
      </trkpt>
      <trkpt lat="46.49473" lon="-1.79702">
        <ele>9</ele>
        <time>2023-11-01T14:13:40Z</time>
      </trkpt>
      <trkpt lat="46.49494" lon="-1.79657">
        <ele>6</ele>
        <time>2023-11-01T14:14:30Z</time>
      </trkpt>
      <trkpt lat="46.4951" lon="-1.79645">
        <ele>6</ele>
        <time>2023-11-01T14:14:54Z</time>
      </trkpt>
      <trkpt lat="46.49564" lon="-1.79661">
        <ele>7</ele>
        <time>2023-11-01T14:16:07Z</time>
      </trkpt>
      <trkpt lat="46.49581" lon="-1.7967">
        <ele>8</ele>
        <time>2023-11-01T14:16:32Z</time>
      </trkpt>
      <trkpt lat="46.49617" lon="-1.79679">
        <ele>8</ele>
        <time>2023-11-01T14:17:20Z</time>
      </trkpt>
      <trkpt lat="46.49636" lon="-1.79681">
        <ele>7</ele>
        <time>2023-11-01T14:17:46Z</time>
      </trkpt>
      <trkpt lat="46.49653" lon="-1.79689">
        <ele>7</ele>
        <time>2023-11-01T14:18:10Z</time>
      </trkpt>
      <trkpt lat="46.49726" lon="-1.79705">
        <ele>7</ele>
        <time>2023-11-01T14:19:48Z</time>
      </trkpt>
      <trkpt lat="46.49744" lon="-1.79713">
        <ele>7</ele>
        <time>2023-11-01T14:20:13Z</time>
      </trkpt>
      <trkpt lat="46.49743" lon="-1.79741">
        <ele>8</ele>
        <time>2023-11-01T14:20:39Z</time>
      </trkpt>
      <trkpt lat="46.49734" lon="-1.79764">
        <ele>9</ele>
        <time>2023-11-01T14:21:03Z</time>
      </trkpt>
      <trkpt lat="46.49728" lon="-1.7979">
        <ele>10</ele>
        <time>2023-11-01T14:21:28Z</time>
      </trkpt>
      <trkpt lat="46.49717" lon="-1.79811">
        <ele>11</ele>
        <time>2023-11-01T14:21:53Z</time>
      </trkpt>
      <trkpt lat="46.49729" lon="-1.79791">
        <ele>10</ele>
        <time>2023-11-01T14:22:17Z</time>
      </trkpt>
      <trkpt lat="46.49802" lon="-1.79815">
        <ele>9</ele>
        <time>2023-11-01T14:23:57Z</time>
      </trkpt>
      <trkpt lat="46.49837" lon="-1.79832">
        <ele>9</ele>
        <time>2023-11-01T14:24:46Z</time>
      </trkpt>
      <trkpt lat="46.49822" lon="-1.79881">
        <ele>10</ele>
        <time>2023-11-01T14:25:35Z</time>
      </trkpt>
      <trkpt lat="46.49817" lon="-1.79906">
        <ele>11</ele>
        <time>2023-11-01T14:25:59Z</time>
      </trkpt>
      <trkpt lat="46.49833" lon="-1.79921">
        <ele>11</ele>
        <time>2023-11-01T14:26:25Z</time>
      </trkpt>
      <trkpt lat="46.4985" lon="-1.7993">
        <ele>11</ele>
        <time>2023-11-01T14:26:49Z</time>
      </trkpt>
      <trkpt lat="46.49864" lon="-1.79912">
        <ele>10</ele>
        <time>2023-11-01T14:27:14Z</time>
      </trkpt>
      <trkpt lat="46.49875" lon="-1.79891">
        <ele>10</ele>
        <time>2023-11-01T14:27:38Z</time>
      </trkpt>
      <trkpt lat="46.49883" lon="-1.79865">
        <ele>9</ele>
        <time>2023-11-01T14:28:04Z</time>
      </trkpt>
      <trkpt lat="46.49882" lon="-1.79838">
        <ele>8</ele>
        <time>2023-11-01T14:28:29Z</time>
      </trkpt>
      <trkpt lat="46.49893" lon="-1.79815">
        <ele>8</ele>
        <time>2023-11-01T14:28:55Z</time>
      </trkpt>
      <trkpt lat="46.49899" lon="-1.79789">
        <ele>7</ele>
        <time>2023-11-01T14:29:20Z</time>
      </trkpt>
      <trkpt lat="46.49901" lon="-1.79763">
        <ele>6</ele>
        <time>2023-11-01T14:29:44Z</time>
      </trkpt>
      <trkpt lat="46.49893" lon="-1.79739">
        <ele>6</ele>
        <time>2023-11-01T14:30:09Z</time>
      </trkpt>
      <trkpt lat="46.49892" lon="-1.79713">
        <ele>5</ele>
        <time>2023-11-01T14:30:33Z</time>
      </trkpt>
      <trkpt lat="46.49895" lon="-1.79687">
        <ele>4</ele>
        <time>2023-11-01T14:30:57Z</time>
      </trkpt>
      <trkpt lat="46.49905" lon="-1.79664">
        <ele>4</ele>
        <time>2023-11-01T14:31:22Z</time>
      </trkpt>
      <trkpt lat="46.49923" lon="-1.79663">
        <ele>4</ele>
        <time>2023-11-01T14:31:46Z</time>
      </trkpt>
      <trkpt lat="46.49952" lon="-1.79627">
        <ele>3</ele>
        <time>2023-11-01T14:32:37Z</time>
      </trkpt>
      <trkpt lat="46.49965" lon="-1.79607">
        <ele>3</ele>
        <time>2023-11-01T14:33:02Z</time>
      </trkpt>
      <trkpt lat="46.50025" lon="-1.79543">
        <ele>1</ele>
        <time>2023-11-01T14:34:41Z</time>
      </trkpt>
      <trkpt lat="46.50039" lon="-1.79524">
        <ele>1</ele>
        <time>2023-11-01T14:35:07Z</time>
      </trkpt>
      <trkpt lat="46.50055" lon="-1.79509">
        <ele>1</ele>
        <time>2023-11-01T14:35:32Z</time>
      </trkpt>
      <trkpt lat="46.5009" lon="-1.79532">
        <ele>2</ele>
        <time>2023-11-01T14:36:24Z</time>
      </trkpt>
      <trkpt lat="46.50123" lon="-1.79559">
        <ele>3</ele>
        <time>2023-11-01T14:37:14Z</time>
      </trkpt>
      <trkpt lat="46.50174" lon="-1.79594">
        <ele>3</ele>
        <time>2023-11-01T14:38:29Z</time>
      </trkpt>
      <trkpt lat="46.50193" lon="-1.79592">
        <ele>4</ele>
        <time>2023-11-01T14:38:55Z</time>
      </trkpt>
      <trkpt lat="46.5021" lon="-1.79584">
        <ele>5</ele>
        <time>2023-11-01T14:39:19Z</time>
      </trkpt>
      <trkpt lat="46.50239" lon="-1.79551">
        <ele>5</ele>
        <time>2023-11-01T14:40:08Z</time>
      </trkpt>
      <trkpt lat="46.50248" lon="-1.79527">
        <ele>5</ele>
        <time>2023-11-01T14:40:33Z</time>
      </trkpt>
      <trkpt lat="46.50254" lon="-1.79501">
        <ele>4</ele>
        <time>2023-11-01T14:40:58Z</time>
      </trkpt>
      <trkpt lat="46.50282" lon="-1.7943">
        <ele>3</ele>
        <time>2023-11-01T14:42:13Z</time>
      </trkpt>
      <trkpt lat="46.50298" lon="-1.79381">
        <ele>3</ele>
        <time>2023-11-01T14:43:03Z</time>
      </trkpt>
      <trkpt lat="46.50302" lon="-1.79354">
        <ele>3</ele>
        <time>2023-11-01T14:43:28Z</time>
      </trkpt>
      <trkpt lat="46.50313" lon="-1.79331">
        <ele>3</ele>
        <time>2023-11-01T14:43:54Z</time>
      </trkpt>
      <trkpt lat="46.50321" lon="-1.79307">
        <ele>3</ele>
        <time>2023-11-01T14:44:19Z</time>
      </trkpt>
      <trkpt lat="46.50333" lon="-1.79287">
        <ele>2</ele>
        <time>2023-11-01T14:44:43Z</time>
      </trkpt>
      <trkpt lat="46.50348" lon="-1.79273">
        <ele>2</ele>
        <time>2023-11-01T14:45:07Z</time>
      </trkpt>
      <trkpt lat="46.50365" lon="-1.79223">
        <ele>1</ele>
        <time>2023-11-01T14:45:58Z</time>
      </trkpt>
      <trkpt lat="46.50362" lon="-1.79197">
        <ele>1</ele>
        <time>2023-11-01T14:46:22Z</time>
      </trkpt>
      <trkpt lat="46.50369" lon="-1.79173">
        <ele>1</ele>
        <time>2023-11-01T14:46:46Z</time>
      </trkpt>
      <trkpt lat="46.50398" lon="-1.79103">
        <ele>1</ele>
        <time>2023-11-01T14:48:01Z</time>
      </trkpt>
      <trkpt lat="46.50414" lon="-1.79057">
        <ele>1</ele>
        <time>2023-11-01T14:48:49Z</time>
      </trkpt>
      <trkpt lat="46.50426" lon="-1.79006">
        <ele>1</ele>
        <time>2023-11-01T14:49:38Z</time>
      </trkpt>
      <trkpt lat="46.50453" lon="-1.78936">
        <ele>2</ele>
        <time>2023-11-01T14:50:52Z</time>
      </trkpt>
      <trkpt lat="46.50439" lon="-1.78917">
        <ele>2</ele>
        <time>2023-11-01T14:51:17Z</time>
      </trkpt>
      <trkpt lat="46.50424" lon="-1.78902">
        <ele>3</ele>
        <time>2023-11-01T14:51:42Z</time>
      </trkpt>
      <trkpt lat="46.50374" lon="-1.78865">
        <ele>2</ele>
        <time>2023-11-01T14:52:56Z</time>
      </trkpt>
      <trkpt lat="46.50329" lon="-1.78816">
        <ele>4.1</ele>
        <time>2023-11-01T14:54:12Z</time>
      </trkpt>
      <trkpt lat="46.50302" lon="-1.78779">
        <ele>1</ele>
        <time>2023-11-01T14:55:01Z</time>
      </trkpt>
      <trkpt lat="46.50292" lon="-1.78756">
        <ele>1</ele>
        <time>2023-11-01T14:55:26Z</time>
      </trkpt>
      <trkpt lat="46.50285" lon="-1.78731">
        <ele>2</ele>
        <time>2023-11-01T14:55:51Z</time>
      </trkpt>
      <trkpt lat="46.50256" lon="-1.78699">
        <ele>3</ele>
        <time>2023-11-01T14:56:39Z</time>
      </trkpt>
      <trkpt lat="46.50242" lon="-1.7868">
        <ele>3</ele>
        <time>2023-11-01T14:57:05Z</time>
      </trkpt>
      <trkpt lat="46.50226" lon="-1.78667">
        <ele>3</ele>
        <time>2023-11-01T14:57:29Z</time>
      </trkpt>
      <trkpt lat="46.50182" lon="-1.78616">
        <ele>3</ele>
        <time>2023-11-01T14:58:45Z</time>
      </trkpt>
      <trkpt lat="46.50153" lon="-1.78577">
        <ele>4</ele>
        <time>2023-11-01T14:59:37Z</time>
      </trkpt>
      <trkpt lat="46.50135" lon="-1.78572">
        <ele>4</ele>
        <time>2023-11-01T15:00:02Z</time>
      </trkpt>
      <trkpt lat="46.50125" lon="-1.78596">
        <ele>4</ele>
        <time>2023-11-01T15:00:28Z</time>
      </trkpt>
      <trkpt lat="46.50087" lon="-1.78597">
        <ele>5</ele>
        <time>2023-11-01T15:01:18Z</time>
      </trkpt>
      <trkpt lat="46.50069" lon="-1.78602">
        <ele>4</ele>
        <time>2023-11-01T15:01:43Z</time>
      </trkpt>
      <trkpt lat="46.50058" lon="-1.78623">
        <ele>4</ele>
        <time>2023-11-01T15:02:07Z</time>
      </trkpt>
      <trkpt lat="46.50042" lon="-1.78637">
        <ele>4</ele>
        <time>2023-11-01T15:02:32Z</time>
      </trkpt>
      <trkpt lat="46.50028" lon="-1.78655">
        <ele>3</ele>
        <time>2023-11-01T15:02:57Z</time>
      </trkpt>
      <trkpt lat="46.50048" lon="-1.78663">
        <ele>3</ele>
        <time>2023-11-01T15:03:25Z</time>
      </trkpt>
      <trkpt lat="46.5005" lon="-1.78689">
        <ele>3</ele>
        <time>2023-11-01T15:03:49Z</time>
      </trkpt>
      <trkpt lat="46.50032" lon="-1.78679">
        <ele>3</ele>
        <time>2023-11-01T15:04:14Z</time>
      </trkpt>
      <trkpt lat="46.50016" lon="-1.78666">
        <ele>3</ele>
        <time>2023-11-01T15:04:39Z</time>
      </trkpt>
      <trkpt lat="46.50023" lon="-1.78693">
        <ele>3</ele>
        <time>2023-11-01T15:05:05Z</time>
      </trkpt>
      <trkpt lat="46.50036" lon="-1.78712">
        <ele>3</ele>
        <time>2023-11-01T15:05:30Z</time>
      </trkpt>
      <trkpt lat="46.50043" lon="-1.78682">
        <ele>3</ele>
        <time>2023-11-01T15:05:59Z</time>
      </trkpt>
      <trkpt lat="46.50043" lon="-1.7865">
        <ele>3</ele>
        <time>2023-11-01T15:06:28Z</time>
      </trkpt>
      <trkpt lat="46.50025" lon="-1.78644">
        <ele>3</ele>
        <time>2023-11-01T15:06:53Z</time>
      </trkpt>
      <trkpt lat="46.50014" lon="-1.78623">
        <ele>4</ele>
        <time>2023-11-01T15:07:17Z</time>
      </trkpt>
      <trkpt lat="46.50015" lon="-1.78595">
        <ele>4</ele>
        <time>2023-11-01T15:07:43Z</time>
      </trkpt>
      <trkpt lat="46.5" lon="-1.7858">
        <ele>4</ele>
        <time>2023-11-01T15:08:07Z</time>
      </trkpt>
      <trkpt lat="46.4996" lon="-1.78524">
        <ele>5</ele>
        <time>2023-11-01T15:09:21Z</time>
      </trkpt>
      <trkpt lat="46.49942" lon="-1.78514">
        <ele>5</ele>
        <time>2023-11-01T15:09:47Z</time>
      </trkpt>
      <trkpt lat="46.49923" lon="-1.7851">
        <ele>5</ele>
        <time>2023-11-01T15:10:13Z</time>
      </trkpt>
      <trkpt lat="46.49906" lon="-1.78501">
        <ele>5</ele>
        <time>2023-11-01T15:10:37Z</time>
      </trkpt>
      <trkpt lat="46.49888" lon="-1.78497">
        <ele>5</ele>
        <time>2023-11-01T15:11:01Z</time>
      </trkpt>
      <trkpt lat="46.49857" lon="-1.78524">
        <ele>5</ele>
        <time>2023-11-01T15:11:49Z</time>
      </trkpt>
      <trkpt lat="46.49839" lon="-1.78512">
        <ele>5</ele>
        <time>2023-11-01T15:12:16Z</time>
      </trkpt>
      <trkpt lat="46.49821" lon="-1.78519">
        <ele>5</ele>
        <time>2023-11-01T15:12:41Z</time>
      </trkpt>
      <trkpt lat="46.49805" lon="-1.7853">
        <ele>6</ele>
        <time>2023-11-01T15:13:04Z</time>
      </trkpt>
      <trkpt lat="46.49788" lon="-1.78536">
        <ele>6</ele>
        <time>2023-11-01T15:13:28Z</time>
      </trkpt>
      <trkpt lat="46.49778" lon="-1.78559">
        <ele>6</ele>
        <time>2023-11-01T15:13:53Z</time>
      </trkpt>
      <trkpt lat="46.4976" lon="-1.78567">
        <ele>7</ele>
        <time>2023-11-01T15:14:18Z</time>
      </trkpt>
      <trkpt lat="46.49705" lon="-1.78565">
        <ele>6</ele>
        <time>2023-11-01T15:15:31Z</time>
      </trkpt>
      <trkpt lat="46.49691" lon="-1.78546">
        <ele>6</ele>
        <time>2023-11-01T15:15:57Z</time>
      </trkpt>
      <trkpt lat="46.49691" lon="-1.7852">
        <ele>7</ele>
        <time>2023-11-01T15:16:21Z</time>
      </trkpt>
      <trkpt lat="46.49687" lon="-1.78493">
        <ele>7</ele>
        <time>2023-11-01T15:16:46Z</time>
      </trkpt>
      <trkpt lat="46.49691" lon="-1.78467">
        <ele>6</ele>
        <time>2023-11-01T15:17:10Z</time>
      </trkpt>
      <trkpt lat="46.49678" lon="-1.78416">
        <ele>5</ele>
        <time>2023-11-01T15:18:00Z</time>
      </trkpt>
      <trkpt lat="46.49685" lon="-1.78392">
        <ele>5</ele>
        <time>2023-11-01T15:18:24Z</time>
      </trkpt>
      <trkpt lat="46.4968" lon="-1.78366">
        <ele>5</ele>
        <time>2023-11-01T15:18:49Z</time>
      </trkpt>
      <trkpt lat="46.49671" lon="-1.78344">
        <ele>5</ele>
        <time>2023-11-01T15:19:13Z</time>
      </trkpt>
      <trkpt lat="46.49658" lon="-1.78363">
        <ele>6</ele>
        <time>2023-11-01T15:19:37Z</time>
      </trkpt>
      <trkpt lat="46.49662" lon="-1.78388">
        <ele>5</ele>
        <time>2023-11-01T15:20:01Z</time>
      </trkpt>
      <trkpt lat="46.49656" lon="-1.78413">
        <ele>6</ele>
        <time>2023-11-01T15:20:25Z</time>
      </trkpt>
      <trkpt lat="46.49637" lon="-1.78414">
        <ele>8</ele>
        <time>2023-11-01T15:20:51Z</time>
      </trkpt>
      <trkpt lat="46.49619" lon="-1.78418">
        <ele>9</ele>
        <time>2023-11-01T15:21:15Z</time>
      </trkpt>
      <trkpt lat="46.49581" lon="-1.78412">
        <ele>12</ele>
        <time>2023-11-01T15:22:06Z</time>
      </trkpt>
      <trkpt lat="46.49562" lon="-1.78413">
        <ele>12</ele>
        <time>2023-11-01T15:22:31Z</time>
      </trkpt>
      <trkpt lat="46.49544" lon="-1.7841">
        <ele>11</ele>
        <time>2023-11-01T15:22:55Z</time>
      </trkpt>
      <trkpt lat="46.49533" lon="-1.78388">
        <ele>11</ele>
        <time>2023-11-01T15:23:20Z</time>
      </trkpt>
      <trkpt lat="46.49529" lon="-1.78362">
        <ele>12</ele>
        <time>2023-11-01T15:23:45Z</time>
      </trkpt>
      <trkpt lat="46.49534" lon="-1.78336">
        <ele>13</ele>
        <time>2023-11-01T15:24:10Z</time>
      </trkpt>
      <trkpt lat="46.49516" lon="-1.78345">
        <ele>12</ele>
        <time>2023-11-01T15:24:35Z</time>
      </trkpt>
      <trkpt lat="46.49496" lon="-1.7835">
        <ele>11</ele>
        <time>2023-11-01T15:25:02Z</time>
      </trkpt>
      <trkpt lat="46.49478" lon="-1.7835">
        <ele>9</ele>
        <time>2023-11-01T15:25:26Z</time>
      </trkpt>
      <trkpt lat="46.49462" lon="-1.78335">
        <ele>8</ele>
        <time>2023-11-01T15:25:52Z</time>
      </trkpt>
      <trkpt lat="46.49459" lon="-1.78282">
        <ele>8</ele>
        <time>2023-11-01T15:26:40Z</time>
      </trkpt>
      <trkpt lat="46.49455" lon="-1.78255">
        <ele>8</ele>
        <time>2023-11-01T15:27:06Z</time>
      </trkpt>
      <trkpt lat="46.49446" lon="-1.78231">
        <ele>8</ele>
        <time>2023-11-01T15:27:31Z</time>
      </trkpt>
      <trkpt lat="46.49441" lon="-1.78178">
        <ele>8</ele>
        <time>2023-11-01T15:28:20Z</time>
      </trkpt>
      <trkpt lat="46.49429" lon="-1.78099">
        <ele>10</ele>
        <time>2023-11-01T15:29:34Z</time>
      </trkpt>
      <trkpt lat="46.49416" lon="-1.78081">
        <ele>11</ele>
        <time>2023-11-01T15:29:58Z</time>
      </trkpt>
      <trkpt lat="46.49374" lon="-1.7796">
        <ele>7</ele>
        <time>2023-11-01T15:32:03Z</time>
      </trkpt>
      <trkpt lat="46.49355" lon="-1.77884">
        <ele>8</ele>
        <time>2023-11-01T15:33:17Z</time>
      </trkpt>
      <trkpt lat="46.49343" lon="-1.77863">
        <ele>9</ele>
        <time>2023-11-01T15:33:42Z</time>
      </trkpt>
      <trkpt lat="46.49311" lon="-1.77766">
        <ele>7</ele>
        <time>2023-11-01T15:35:21Z</time>
      </trkpt>
      <trkpt lat="46.49293" lon="-1.77719">
        <ele>7</ele>
        <time>2023-11-01T15:36:10Z</time>
      </trkpt>
      <trkpt lat="46.49268" lon="-1.77678">
        <ele>7</ele>
        <time>2023-11-01T15:37:01Z</time>
      </trkpt>
      <trkpt lat="46.49233" lon="-1.77613">
        <ele>7</ele>
        <time>2023-11-01T15:38:17Z</time>
      </trkpt>
      <trkpt lat="46.49203" lon="-1.77578">
        <ele>8</ele>
        <time>2023-11-01T15:39:08Z</time>
      </trkpt>
      <trkpt lat="46.49187" lon="-1.77563">
        <ele>8</ele>
        <time>2023-11-01T15:39:33Z</time>
      </trkpt>
      <trkpt lat="46.49122" lon="-1.77468">
        <ele>6</ele>
        <time>2023-11-01T15:41:36Z</time>
      </trkpt>
      <trkpt lat="46.49062" lon="-1.77333">
        <ele>7</ele>
        <time>2023-11-01T15:44:04Z</time>
      </trkpt>
      <trkpt lat="46.49045" lon="-1.77284">
        <ele>6</ele>
        <time>2023-11-01T15:44:54Z</time>
      </trkpt>
      <trkpt lat="46.48998" lon="-1.77169">
        <ele>7</ele>
        <time>2023-11-01T15:46:57Z</time>
      </trkpt>
      <trkpt lat="46.48986" lon="-1.77149">
        <ele>6</ele>
        <time>2023-11-01T15:47:22Z</time>
      </trkpt>
      <trkpt lat="46.48965" lon="-1.77103">
        <ele>6</ele>
        <time>2023-11-01T15:48:12Z</time>
      </trkpt>
      <trkpt lat="46.48957" lon="-1.77078">
        <ele>6</ele>
        <time>2023-11-01T15:48:38Z</time>
      </trkpt>
      <trkpt lat="46.48935" lon="-1.77035">
        <ele>6</ele>
        <time>2023-11-01T15:49:27Z</time>
      </trkpt>
      <trkpt lat="46.48915" lon="-1.76989">
        <ele>7</ele>
        <time>2023-11-01T15:50:17Z</time>
      </trkpt>
      <trkpt lat="46.48878" lon="-1.76991">
        <ele>5</ele>
        <time>2023-11-01T15:51:06Z</time>
      </trkpt>
      <trkpt lat="46.48863" lon="-1.76974">
        <ele>5</ele>
        <time>2023-11-01T15:51:32Z</time>
      </trkpt>
      <trkpt lat="46.48852" lon="-1.76951">
        <ele>6</ele>
        <time>2023-11-01T15:51:57Z</time>
      </trkpt>
      <trkpt lat="46.48871" lon="-1.76951">
        <ele>7</ele>
        <time>2023-11-01T15:52:23Z</time>
      </trkpt>
      <trkpt lat="46.48901" lon="-1.76981">
        <ele>7</ele>
        <time>2023-11-01T15:53:11Z</time>
      </trkpt>
      <trkpt lat="46.48885" lon="-1.76994">
        <ele>5</ele>
        <time>2023-11-01T15:53:36Z</time>
      </trkpt>
      <trkpt lat="46.48868" lon="-1.76983">
        <ele>5</ele>
        <time>2023-11-01T15:54:01Z</time>
      </trkpt>
      <trkpt lat="46.48845" lon="-1.76942">
        <ele>6</ele>
        <time>2023-11-01T15:54:49Z</time>
      </trkpt>
      <trkpt lat="46.4883" lon="-1.76928">
        <ele>7</ele>
        <time>2023-11-01T15:55:13Z</time>
      </trkpt>
      <trkpt lat="46.48797" lon="-1.76904">
        <ele>7</ele>
        <time>2023-11-01T15:56:02Z</time>
      </trkpt>
      <trkpt lat="46.48779" lon="-1.76901">
        <ele>6</ele>
        <time>2023-11-01T15:56:27Z</time>
      </trkpt>
      <trkpt lat="46.48762" lon="-1.76889">
        <ele>6</ele>
        <time>2023-11-01T15:56:52Z</time>
      </trkpt>
      <trkpt lat="46.48756" lon="-1.76864">
        <ele>8</ele>
        <time>2023-11-01T15:57:16Z</time>
      </trkpt>
      <trkpt lat="46.48739" lon="-1.76852">
        <ele>8</ele>
        <time>2023-11-01T15:57:41Z</time>
      </trkpt>
      <trkpt lat="46.48721" lon="-1.76843">
        <ele>6</ele>
        <time>2023-11-01T15:58:07Z</time>
      </trkpt>
      <trkpt lat="46.48716" lon="-1.76817">
        <ele>7</ele>
        <time>2023-11-01T15:58:32Z</time>
      </trkpt>
      <trkpt lat="46.48704" lon="-1.76798">
        <ele>8</ele>
        <time>2023-11-01T15:58:55Z</time>
      </trkpt>
      <trkpt lat="46.48672" lon="-1.76769">
        <ele>8</ele>
        <time>2023-11-01T15:59:46Z</time>
      </trkpt>
      <trkpt lat="46.48654" lon="-1.76771">
        <ele>7</ele>
        <time>2023-11-01T16:00:10Z</time>
      </trkpt>
      <trkpt lat="46.48639" lon="-1.76756">
        <ele>7</ele>
        <time>2023-11-01T16:00:34Z</time>
      </trkpt>
      <trkpt lat="46.48641" lon="-1.7673">
        <ele>8</ele>
        <time>2023-11-01T16:00:58Z</time>
      </trkpt>
      <trkpt lat="46.4863" lon="-1.76708">
        <ele>9</ele>
        <time>2023-11-01T16:01:23Z</time>
      </trkpt>
      <trkpt lat="46.48616" lon="-1.76692">
        <ele>9</ele>
        <time>2023-11-01T16:01:47Z</time>
      </trkpt>
      <trkpt lat="46.48597" lon="-1.76687">
        <ele>8</ele>
        <time>2023-11-01T16:02:12Z</time>
      </trkpt>
      <trkpt lat="46.48584" lon="-1.76669">
        <ele>9</ele>
        <time>2023-11-01T16:02:36Z</time>
      </trkpt>
      <trkpt lat="46.48521" lon="-1.76611">
        <ele>7</ele>
        <time>2023-11-01T16:04:16Z</time>
      </trkpt>
      <trkpt lat="46.48509" lon="-1.76589">
        <ele>8</ele>
        <time>2023-11-01T16:04:42Z</time>
      </trkpt>
      <trkpt lat="46.48494" lon="-1.76573">
        <ele>8</ele>
        <time>2023-11-01T16:05:07Z</time>
      </trkpt>
      <trkpt lat="46.48463" lon="-1.76545">
        <ele>6</ele>
        <time>2023-11-01T16:05:55Z</time>
      </trkpt>
      <trkpt lat="46.48452" lon="-1.76525">
        <ele>6</ele>
        <time>2023-11-01T16:06:19Z</time>
      </trkpt>
      <trkpt lat="46.48455" lon="-1.76498">
        <ele>7</ele>
        <time>2023-11-01T16:06:44Z</time>
      </trkpt>
      <trkpt lat="46.48451" lon="-1.76471">
        <ele>7</ele>
        <time>2023-11-01T16:07:09Z</time>
      </trkpt>
      <trkpt lat="46.48429" lon="-1.76396">
        <ele>8</ele>
        <time>2023-11-01T16:08:24Z</time>
      </trkpt>
      <trkpt lat="46.48395" lon="-1.763">
        <ele>9</ele>
        <time>2023-11-01T16:10:03Z</time>
      </trkpt>
      <trkpt lat="46.48376" lon="-1.76254">
        <ele>10</ele>
        <time>2023-11-01T16:10:53Z</time>
      </trkpt>
      <trkpt lat="46.48365" lon="-1.76233">
        <ele>10</ele>
        <time>2023-11-01T16:11:17Z</time>
      </trkpt>
      <trkpt lat="46.4835" lon="-1.76217">
        <ele>10</ele>
        <time>2023-11-01T16:11:42Z</time>
      </trkpt>
      <trkpt lat="46.48318" lon="-1.76191">
        <ele>9</ele>
        <time>2023-11-01T16:12:31Z</time>
      </trkpt>
      <trkpt lat="46.48256" lon="-1.7613">
        <ele>9</ele>
        <time>2023-11-01T16:14:11Z</time>
      </trkpt>
      <trkpt lat="46.48243" lon="-1.76111">
        <ele>9</ele>
        <time>2023-11-01T16:14:35Z</time>
      </trkpt>
      <trkpt lat="46.48233" lon="-1.76089">
        <ele>10</ele>
        <time>2023-11-01T16:15:00Z</time>
      </trkpt>
      <trkpt lat="46.48228" lon="-1.76063">
        <ele>10</ele>
        <time>2023-11-01T16:15:24Z</time>
      </trkpt>
      <trkpt lat="46.48227" lon="-1.76011">
        <ele>11</ele>
        <time>2023-11-01T16:16:12Z</time>
      </trkpt>
      <trkpt lat="46.48229" lon="-1.75985">
        <ele>11</ele>
        <time>2023-11-01T16:16:36Z</time>
      </trkpt>
      <trkpt lat="46.48246" lon="-1.75907">
        <ele>11</ele>
        <time>2023-11-01T16:17:51Z</time>
      </trkpt>
      <trkpt lat="46.48263" lon="-1.75896">
        <ele>11</ele>
        <time>2023-11-01T16:18:16Z</time>
      </trkpt>
      <trkpt lat="46.483" lon="-1.759">
        <ele>12</ele>
        <time>2023-11-01T16:19:06Z</time>
      </trkpt>
      <trkpt lat="46.48318" lon="-1.75899">
        <ele>13</ele>
        <time>2023-11-01T16:19:30Z</time>
      </trkpt>
      <trkpt lat="46.48333" lon="-1.75883">
        <ele>14</ele>
        <time>2023-11-01T16:19:55Z</time>
      </trkpt>
      <trkpt lat="46.4835" lon="-1.75805">
        <ele>13</ele>
        <time>2023-11-01T16:21:10Z</time>
      </trkpt>
      <trkpt lat="46.48348" lon="-1.75779">
        <ele>12</ele>
        <time>2023-11-01T16:21:34Z</time>
      </trkpt>
      <trkpt lat="46.48292" lon="-1.75777">
        <ele>10</ele>
        <time>2023-11-01T16:22:49Z</time>
      </trkpt>
      <trkpt lat="46.48208" lon="-1.75836">
        <ele>9</ele>
        <time>2023-11-01T16:24:53Z</time>
      </trkpt>
      <trkpt lat="46.48177" lon="-1.75865">
        <ele>10</ele>
        <time>2023-11-01T16:25:42Z</time>
      </trkpt>
      <trkpt lat="46.48163" lon="-1.75883">
        <ele>10</ele>
        <time>2023-11-01T16:26:07Z</time>
      </trkpt>
      <trkpt lat="46.48133" lon="-1.75914">
        <ele>10</ele>
        <time>2023-11-01T16:26:56Z</time>
      </trkpt>
      <trkpt lat="46.4812" lon="-1.75934">
        <ele>10</ele>
        <time>2023-11-01T16:27:22Z</time>
      </trkpt>
      <trkpt lat="46.48104" lon="-1.75949">
        <ele>10</ele>
        <time>2023-11-01T16:27:47Z</time>
      </trkpt>
      <trkpt lat="46.48091" lon="-1.75968">
        <ele>9</ele>
        <time>2023-11-01T16:28:12Z</time>
      </trkpt>
      <trkpt lat="46.48061" lon="-1.76035">
        <ele>7</ele>
        <time>2023-11-01T16:29:25Z</time>
      </trkpt>
      <trkpt lat="46.48043" lon="-1.76046">
        <ele>7</ele>
        <time>2023-11-01T16:29:51Z</time>
      </trkpt>
      <trkpt lat="46.48025" lon="-1.76038">
        <ele>7</ele>
        <time>2023-11-01T16:30:16Z</time>
      </trkpt>
      <trkpt lat="46.47933" lon="-1.7603">
        <ele>8</ele>
        <time>2023-11-01T16:32:19Z</time>
      </trkpt>
      <trkpt lat="46.47878" lon="-1.76013">
        <ele>8</ele>
        <time>2023-11-01T16:33:34Z</time>
      </trkpt>
      <trkpt lat="46.4786" lon="-1.76019">
        <ele>7</ele>
        <time>2023-11-01T16:33:59Z</time>
      </trkpt>
      <trkpt lat="46.47843" lon="-1.76033">
        <ele>6</ele>
        <time>2023-11-01T16:34:25Z</time>
      </trkpt>
      <trkpt lat="46.47826" lon="-1.76024">
        <ele>6</ele>
        <time>2023-11-01T16:34:49Z</time>
      </trkpt>
      <trkpt lat="46.47795" lon="-1.75995">
        <ele>6</ele>
        <time>2023-11-01T16:35:38Z</time>
      </trkpt>
      <trkpt lat="46.47765" lon="-1.7596">
        <ele>5</ele>
        <time>2023-11-01T16:36:30Z</time>
      </trkpt>
      <trkpt lat="46.47758" lon="-1.75935">
        <ele>6</ele>
        <time>2023-11-01T16:36:55Z</time>
      </trkpt>
      <trkpt lat="46.47748" lon="-1.75912">
        <ele>7</ele>
        <time>2023-11-01T16:37:20Z</time>
      </trkpt>
      <trkpt lat="46.47686" lon="-1.75812">
        <ele>7</ele>
        <time>2023-11-01T16:39:23Z</time>
      </trkpt>
      <trkpt lat="46.47657" lon="-1.75779">
        <ele>7</ele>
        <time>2023-11-01T16:40:12Z</time>
      </trkpt>
      <trkpt lat="46.47625" lon="-1.75752">
        <ele>7</ele>
        <time>2023-11-01T16:41:02Z</time>
      </trkpt>
      <trkpt lat="46.47543" lon="-1.75643">
        <ele>6</ele>
        <time>2023-11-01T16:43:30Z</time>
      </trkpt>
      <trkpt lat="46.47519" lon="-1.75602">
        <ele>6</ele>
        <time>2023-11-01T16:44:20Z</time>
      </trkpt>
      <trkpt lat="46.4751" lon="-1.75578">
        <ele>6</ele>
        <time>2023-11-01T16:44:45Z</time>
      </trkpt>
      <trkpt lat="46.47483" lon="-1.75476">
        <ele>7</ele>
        <time>2023-11-01T16:46:25Z</time>
      </trkpt>
      <trkpt lat="46.47468" lon="-1.75371">
        <ele>6</ele>
        <time>2023-11-01T16:48:04Z</time>
      </trkpt>
      <trkpt lat="46.47461" lon="-1.75346">
        <ele>5</ele>
        <time>2023-11-01T16:48:28Z</time>
      </trkpt>
      <trkpt lat="46.47447" lon="-1.75328">
        <ele>4</ele>
        <time>2023-11-01T16:48:53Z</time>
      </trkpt>
      <trkpt lat="46.47443" lon="-1.75275">
        <ele>5</ele>
        <time>2023-11-01T16:49:42Z</time>
      </trkpt>
      <trkpt lat="46.47431" lon="-1.75223">
        <ele>5</ele>
        <time>2023-11-01T16:50:33Z</time>
      </trkpt>
      <trkpt lat="46.4743" lon="-1.75197">
        <ele>6</ele>
        <time>2023-11-01T16:50:57Z</time>
      </trkpt>
      <trkpt lat="46.47422" lon="-1.75171">
        <ele>6</ele>
        <time>2023-11-01T16:51:23Z</time>
      </trkpt>
      <trkpt lat="46.47387" lon="-1.75108">
        <ele>5</ele>
        <time>2023-11-01T16:52:37Z</time>
      </trkpt>
      <trkpt lat="46.47377" lon="-1.75085">
        <ele>5</ele>
        <time>2023-11-01T16:53:02Z</time>
      </trkpt>
      <trkpt lat="46.47374" lon="-1.75058">
        <ele>5</ele>
        <time>2023-11-01T16:53:27Z</time>
      </trkpt>
      <trkpt lat="46.47375" lon="-1.7503">
        <ele>6</ele>
        <time>2023-11-01T16:53:53Z</time>
      </trkpt>
      <trkpt lat="46.47349" lon="-1.7499">
        <ele>4</ele>
        <time>2023-11-01T16:54:44Z</time>
      </trkpt>
      <trkpt lat="46.4734" lon="-1.74967">
        <ele>4</ele>
        <time>2023-11-01T16:55:08Z</time>
      </trkpt>
      <trkpt lat="46.47338" lon="-1.7494">
        <ele>4</ele>
        <time>2023-11-01T16:55:33Z</time>
      </trkpt>
      <trkpt lat="46.47331" lon="-1.74916">
        <ele>4</ele>
        <time>2023-11-01T16:55:57Z</time>
      </trkpt>
      <trkpt lat="46.4734" lon="-1.74836">
        <ele>7</ele>
        <time>2023-11-01T16:57:11Z</time>
      </trkpt>
      <trkpt lat="46.47335" lon="-1.7481">
        <ele>7</ele>
        <time>2023-11-01T16:57:36Z</time>
      </trkpt>
      <trkpt lat="46.47321" lon="-1.74792">
        <ele>7</ele>
        <time>2023-11-01T16:58:01Z</time>
      </trkpt>
      <trkpt lat="46.47311" lon="-1.7477">
        <ele>7</ele>
        <time>2023-11-01T16:58:25Z</time>
      </trkpt>
      <trkpt lat="46.47297" lon="-1.74752">
        <ele>7</ele>
        <time>2023-11-01T16:58:50Z</time>
      </trkpt>
      <trkpt lat="46.47279" lon="-1.74746">
        <ele>6</ele>
        <time>2023-11-01T16:59:15Z</time>
      </trkpt>
      <trkpt lat="46.47264" lon="-1.7473">
        <ele>6</ele>
        <time>2023-11-01T16:59:40Z</time>
      </trkpt>
      <trkpt lat="46.47237" lon="-1.74695">
        <ele>7</ele>
        <time>2023-11-01T17:00:28Z</time>
      </trkpt>
      <trkpt lat="46.47226" lon="-1.74672">
        <ele>7</ele>
        <time>2023-11-01T17:00:54Z</time>
      </trkpt>
      <trkpt lat="46.47208" lon="-1.74665">
        <ele>6</ele>
        <time>2023-11-01T17:01:19Z</time>
      </trkpt>
      <trkpt lat="46.47189" lon="-1.74668">
        <ele>3</ele>
        <time>2023-11-01T17:01:44Z</time>
      </trkpt>
      <trkpt lat="46.47197" lon="-1.74643">
        <ele>5</ele>
        <time>2023-11-01T17:02:10Z</time>
      </trkpt>
      <trkpt lat="46.47184" lon="-1.74624">
        <ele>4</ele>
        <time>2023-11-01T17:02:34Z</time>
      </trkpt>
      <trkpt lat="46.47198" lon="-1.74606">
        <ele>7</ele>
        <time>2023-11-01T17:02:59Z</time>
      </trkpt>
      <trkpt lat="46.47192" lon="-1.74582">
        <ele>7</ele>
        <time>2023-11-01T17:03:23Z</time>
      </trkpt>
      <trkpt lat="46.47156" lon="-1.74521">
        <ele>6</ele>
        <time>2023-11-01T17:04:36Z</time>
      </trkpt>
      <trkpt lat="46.47142" lon="-1.74504">
        <ele>5</ele>
        <time>2023-11-01T17:05:01Z</time>
      </trkpt>
      <trkpt lat="46.47118" lon="-1.74464">
        <ele>5</ele>
        <time>2023-11-01T17:05:50Z</time>
      </trkpt>
      <trkpt lat="46.471" lon="-1.74417">
        <ele>5</ele>
        <time>2023-11-01T17:06:39Z</time>
      </trkpt>
      <trkpt lat="46.47087" lon="-1.74399">
        <ele>5</ele>
        <time>2023-11-01T17:07:03Z</time>
      </trkpt>
      <trkpt lat="46.4707" lon="-1.74387">
        <ele>4</ele>
        <time>2023-11-01T17:07:28Z</time>
      </trkpt>
      <trkpt lat="46.47057" lon="-1.74368">
        <ele>5</ele>
        <time>2023-11-01T17:07:53Z</time>
      </trkpt>
      <trkpt lat="46.47048" lon="-1.74345">
        <ele>5</ele>
        <time>2023-11-01T17:08:17Z</time>
      </trkpt>
      <trkpt lat="46.47013" lon="-1.74283">
        <ele>5</ele>
        <time>2023-11-01T17:09:31Z</time>
      </trkpt>
      <trkpt lat="46.46999" lon="-1.74265">
        <ele>4</ele>
        <time>2023-11-01T17:09:56Z</time>
      </trkpt>
      <trkpt lat="46.46987" lon="-1.74244">
        <ele>5</ele>
        <time>2023-11-01T17:10:21Z</time>
      </trkpt>
      <trkpt lat="46.46978" lon="-1.74221">
        <ele>6</ele>
        <time>2023-11-01T17:10:45Z</time>
      </trkpt>
      <trkpt lat="46.46963" lon="-1.74204">
        <ele>6</ele>
        <time>2023-11-01T17:11:11Z</time>
      </trkpt>
      <trkpt lat="46.46931" lon="-1.7418">
        <ele>5</ele>
        <time>2023-11-01T17:11:59Z</time>
      </trkpt>
      <trkpt lat="46.469" lon="-1.74151">
        <ele>5</ele>
        <time>2023-11-01T17:12:48Z</time>
      </trkpt>
      <trkpt lat="46.46872" lon="-1.74116">
        <ele>5</ele>
        <time>2023-11-01T17:13:37Z</time>
      </trkpt>
      <trkpt lat="46.46862" lon="-1.74092">
        <ele>5</ele>
        <time>2023-11-01T17:14:03Z</time>
      </trkpt>
      <trkpt lat="46.46848" lon="-1.74043">
        <ele>5</ele>
        <time>2023-11-01T17:14:52Z</time>
      </trkpt>
      <trkpt lat="46.46844" lon="-1.74017">
        <ele>5</ele>
        <time>2023-11-01T17:15:16Z</time>
      </trkpt>
      <trkpt lat="46.46846" lon="-1.73964">
        <ele>6</ele>
        <time>2023-11-01T17:16:05Z</time>
      </trkpt>
      <trkpt lat="46.46843" lon="-1.73938">
        <ele>6</ele>
        <time>2023-11-01T17:16:29Z</time>
      </trkpt>
      <trkpt lat="46.46831" lon="-1.73888">
        <ele>6</ele>
        <time>2023-11-01T17:17:18Z</time>
      </trkpt>
      <trkpt lat="46.46828" lon="-1.73862">
        <ele>6</ele>
        <time>2023-11-01T17:17:42Z</time>
      </trkpt>
      <trkpt lat="46.4683" lon="-1.73835">
        <ele>6</ele>
        <time>2023-11-01T17:18:07Z</time>
      </trkpt>
      <trkpt lat="46.46841" lon="-1.73784">
        <ele>5</ele>
        <time>2023-11-01T17:18:56Z</time>
      </trkpt>
      <trkpt lat="46.46844" lon="-1.73757">
        <ele>5</ele>
        <time>2023-11-01T17:19:21Z</time>
      </trkpt>
      <trkpt lat="46.4684" lon="-1.73731">
        <ele>5</ele>
        <time>2023-11-01T17:19:46Z</time>
      </trkpt>
      <trkpt lat="46.46829" lon="-1.73708">
        <ele>4</ele>
        <time>2023-11-01T17:20:12Z</time>
      </trkpt>
      <trkpt lat="46.46815" lon="-1.73692">
        <ele>4</ele>
        <time>2023-11-01T17:20:35Z</time>
      </trkpt>
      <trkpt lat="46.46798" lon="-1.73685">
        <ele>5</ele>
        <time>2023-11-01T17:20:59Z</time>
      </trkpt>
      <trkpt lat="46.46779" lon="-1.73687">
        <ele>4</ele>
        <time>2023-11-01T17:21:24Z</time>
      </trkpt>
      <trkpt lat="46.46761" lon="-1.73683">
        <ele>4</ele>
        <time>2023-11-01T17:21:49Z</time>
      </trkpt>
      <trkpt lat="46.46744" lon="-1.7367">
        <ele>5</ele>
        <time>2023-11-01T17:22:14Z</time>
      </trkpt>
      <trkpt lat="46.46695" lon="-1.73591">
        <ele>6</ele>
        <time>2023-11-01T17:23:52Z</time>
      </trkpt>
      <trkpt lat="46.46677" lon="-1.73582">
        <ele>6</ele>
        <time>2023-11-01T17:24:17Z</time>
      </trkpt>
    </trkseg>
  </trk>
</gpx>